Time;durP1;ratioP1;P1;durP2;ratioP2;P2;SDS_P1;SDS_P2;PMS_P1;PMS_P2;Temp;Humidity;BMP_temperature;BMP_pressure;BME280_temperature;BME280_humidity;BME280_pressure;Samples;Min_cycle;Max_cycle;Signal;HPM_P1;HPM_P2
2022/04/12 00:01:07;;;;;;;7.78;4.88;;;;;;;;;;5033402;28;20407;-71
2022/04/12 00:03:33;;;;;;;6.68;4.32;;;;;;;;;;5033461;28;20031;-71
2022/04/12 00:05:59;;;;;;;10.27;5.03;;;;;;;;;;5032882;28;20029;-71
2022/04/12 00:08:25;;;;;;;8.98;5.03;;;;;;;;;;5032606;28;20506;-71
2022/04/12 00:10:51;;;;;;;7.85;4.65;;;;;;;;;;5031293;28;20518;-70
2022/04/12 00:13:18;;;;;;;6.80;4.85;;;;;;;;;;5044887;28;20079;-71
2022/04/12 00:15:44;;;;;;;9.88;4.50;;;;;;;;;;5032945;28;20017;-71
2022/04/12 00:20:54;;;;;;;9.77;5.15;;;;;;;;;;5018237;28;20032;-70
2022/04/12 00:23:20;;;;;;;11.98;4.78;;;;;;;;;;5033453;28;20032;-71
2022/04/12 00:25:46;;;;;;;7.05;4.50;;;;;;;;;;5032901;28;20025;-71
2022/04/12 00:28:13;;;;;;;10.32;5.65;;;;;;;;;;5032005;28;20028;-72
2022/04/12 00:30:39;;;;;;;10.63;5.22;;;;;;;;;;5032522;28;20104;-72
2022/04/12 00:33:05;;;;;;;6.88;4.55;;;;;;;;;;5032791;28;20021;-71
2022/04/12 00:35:31;;;;;;;8.25;5.05;;;;;;;;;;5032962;28;20021;-71
2022/04/12 00:37:57;;;;;;;8.82;4.97;;;;;;;;;;5047343;28;20453;-72
2022/04/12 00:40:24;;;;;;;9.60;4.90;;;;;;;;;;5032573;28;20028;-72
2022/04/12 00:42:51;;;;;;;7.97;5.00;;;;;;;;;;5032756;28;20163;-72
2022/04/12 00:45:17;;;;;;;8.55;4.95;;;;;;;;;;5030920;28;20561;-71
2022/04/12 00:47:44;;;;;;;11.68;5.55;;;;;;;;;;5047038;28;20770;-72
2022/04/12 00:50:10;;;;;;;9.43;5.93;;;;;;;;;;5032452;28;20395;-71
2022/04/12 00:52:39;;;;;;;11.50;5.53;;;;;;;;;;5032232;28;20055;-71
2022/04/12 00:55:05;;;;;;;10.77;5.53;;;;;;;;;;5047908;28;20025;-71
2022/04/12 00:57:32;;;;;;;12.00;5.55;;;;;;;;;;5031651;28;20026;-71
2022/04/12 00:59:59;;;;;;;9.52;5.40;;;;;;;;;;5047561;28;20024;-72
2022/04/12 01:02:25;;;;;;;12.82;5.55;;;;;;;;;;5032133;28;20017;-72
2022/04/12 01:04:51;;;;;;;9.20;5.07;;;;;;;;;;5047692;28;20431;-71
2022/04/12 01:07:18;;;;;;;9.52;5.00;;;;;;;;;;5031668;28;20025;-72
2022/04/12 01:09:44;;;;;;;8.75;5.47;;;;;;;;;;5032407;28;20555;-70
2022/04/12 01:12:10;;;;;;;10.13;5.25;;;;;;;;;;5032235;28;20021;-72
2022/04/12 01:14:36;;;;;;;11.30;5.13;;;;;;;;;;5031647;28;20029;-72
2022/04/12 01:17:04;;;;;;;8.25;5.32;;;;;;;;;;5031812;28;20075;-70
2022/04/12 01:19:30;;;;;;;9.40;5.18;;;;;;;;;;5030830;28;20562;-71
2022/04/12 01:22:03;;;;;;;10.82;5.28;;;;;;;;;;5047341;28;20033;-70
2022/04/12 01:24:29;;;;;;;7.75;5.00;;;;;;;;;;5031631;28;20025;-71
2022/04/12 01:26:55;;;;;;;10.07;5.35;;;;;;;;;;5031635;28;20492;-71
2022/04/12 01:29:23;;;;;;;9.32;5.38;;;;;;;;;;5046275;28;20025;-72
2022/04/12 01:31:49;;;;;;;7.03;4.90;;;;;;;;;;5047220;28;20530;-72
2022/04/12 01:34:15;;;;;;;8.75;4.82;;;;;;;;;;5031276;28;20105;-71
2022/04/12 01:36:41;;;;;;;8.35;4.93;;;;;;;;;;5031485;28;20029;-73
2022/04/12 01:39:07;;;;;;;10.48;4.45;;;;;;;;;;5046147;28;20025;-72
2022/04/12 01:41:33;;;;;;;10.95;4.78;;;;;;;;;;5031551;28;20091;-71
2022/04/12 01:43:59;;;;;;;8.93;5.15;;;;;;;;;;5031499;28;20095;-71
2022/04/12 01:46:25;;;;;;;7.65;4.57;;;;;;;;;;5031125;28;20438;-71
2022/04/12 01:48:51;;;;;;;8.38;4.95;;;;;;;;;;5030627;28;20049;-70
2022/04/12 01:51:17;;;;;;;7.55;4.82;;;;;;;;;;5031680;28;20538;-72
2022/04/12 01:53:43;;;;;;;9.52;4.45;;;;;;;;;;5031392;28;20079;-71
2022/04/12 01:56:09;;;;;;;13.30;4.70;;;;;;;;;;5031259;28;20495;-69
2022/04/12 01:58:36;;;;;;;12.55;4.70;;;;;;;;;;5030318;28;20510;-70
2022/04/12 02:01:02;;;;;;;7.43;4.25;;;;;;;;;;5031537;28;20022;-71
2022/04/12 02:03:28;;;;;;;8.98;5.15;;;;;;;;;;5031332;28;20475;-71
2022/04/12 02:05:54;;;;;;;9.50;5.20;;;;;;;;;;5031203;28;20101;-70
2022/04/12 02:08:21;;;;;;;8.90;4.70;;;;;;;;;;5030267;28;20368;-72
2022/04/12 02:10:47;;;;;;;7.88;4.47;;;;;;;;;;5030888;28;20037;-71
2022/04/12 02:13:13;;;;;;;8.32;4.40;;;;;;;;;;5046367;28;20028;-72
2022/04/12 02:15:39;;;;;;;7.32;4.20;;;;;;;;;;5031172;28;20022;-71
2022/04/12 02:18:05;;;;;;;7.25;5.22;;;;;;;;;;5030754;28;20052;-71
2022/04/12 02:20:31;;;;;;;7.93;4.32;;;;;;;;;;5030369;28;20087;-71
2022/04/12 02:22:57;;;;;;;6.97;4.28;;;;;;;;;;5031346;28;20519;-71
2022/04/12 02:25:23;;;;;;;5.72;3.97;;;;;;;;;;5031372;28;20025;-72
2022/04/12 02:27:49;;;;;;;7.20;4.30;;;;;;;;;;5045587;28;20029;-71
2022/04/12 02:30:15;;;;;;;8.68;4.10;;;;;;;;;;5031092;28;20025;-71
2022/04/12 02:32:41;;;;;;;6.57;4.30;;;;;;;;;;5050381;28;20030;-71
2022/04/12 02:35:08;;;;;;;8.95;4.82;;;;;;;;;;5050372;28;20018;-72
2022/04/12 02:37:34;;;;;;;6.18;4.50;;;;;;;;;;5034296;28;20025;-72
2022/04/12 02:40:00;;;;;;;12.93;4.90;;;;;;;;;;5034821;28;20028;-71
2022/04/12 02:42:26;;;;;;;12.25;4.75;;;;;;;;;;5034791;28;20021;-71
2022/04/12 02:44:52;;;;;;;6.90;4.18;;;;;;;;;;5050198;28;20029;-71
2022/04/12 02:47:18;;;;;;;9.63;4.30;;;;;;;;;;5049452;28;20040;-70
2022/04/12 02:49:44;;;;;;;9.30;4.20;;;;;;;;;;5034919;28;20079;-70
2022/04/12 02:52:10;;;;;;;12.30;4.88;;;;;;;;;;5050141;28;20100;-71
2022/04/12 02:54:36;;;;;;;5.57;3.92;;;;;;;;;;5034336;28;20025;-71
2022/04/12 02:57:02;;;;;;;8.05;4.40;;;;;;;;;;5034325;28;20403;-70
2022/04/12 02:59:28;;;;;;;6.60;3.95;;;;;;;;;;5034007;28;20018;-70
2022/04/12 03:01:54;;;;;;;5.65;3.55;;;;;;;;;;5048731;28;20102;-72
2022/04/12 03:04:20;;;;;;;8.43;3.70;;;;;;;;;;5038928;28;20036;-71
2022/04/12 03:06:46;;;;;;;6.88;3.20;;;;;;;;;;5034274;28;20033;-71
2022/04/12 03:09:12;;;;;;;7.13;3.33;;;;;;;;;;5033681;28;20033;-71
2022/04/12 03:11:39;;;;;;;8.57;3.97;;;;;;;;;;5034411;28;20026;-70
2022/04/12 03:14:08;;;;;;;8.02;4.03;;;;;;;;;;5034238;28;20432;-70
2022/04/12 03:16:33;;;;;;;9.85;3.70;;;;;;;;;;5033876;28;20029;-70
2022/04/12 03:18:59;;;;;;;6.28;3.42;;;;;;;;;;5032922;28;20018;-70
2022/04/12 03:21:25;;;;;;;8.50;3.30;;;;;;;;;;5034158;28;20018;-71
2022/04/12 03:23:51;;;;;;;7.70;2.97;;;;;;;;;;5034037;28;20376;-71
2022/04/12 03:26:17;;;;;;;8.85;4.60;;;;;;;;;;5033679;28;20036;-70
2022/04/12 03:28:43;;;;;;;5.10;3.05;;;;;;;;;;5033359;28;20030;-71
2022/04/12 03:31:09;;;;;;;7.18;4.07;;;;;;;;;;5034098;28;20028;-71
2022/04/12 03:33:35;;;;;;;7.45;3.55;;;;;;;;;;5049394;28;20526;-71
2022/04/12 03:36:01;;;;;;;5.97;3.42;;;;;;;;;;5033981;28;20597;-71
2022/04/12 03:38:27;;;;;;;5.15;3.45;;;;;;;;;;5032932;28;20462;-72
2022/04/12 03:40:58;;;;;;;8.73;4.38;;;;;;;;;;5049022;28;20395;-71
2022/04/12 03:43:24;;;;;;;9.50;4.30;;;;;;;;;;5049216;28;20455;-70
2022/04/12 03:48:17;;;;;;;8.57;4.35;;;;;;;;;;5064486;22;20091;-67
2022/04/12 03:50:44;;;;;;;10.80;4.80;;;;;;;;;;5052268;28;20052;-70
2022/04/12 03:53:10;;;;;;;6.80;3.97;;;;;;;;;;5053677;28;20026;-71
2022/04/12 03:55:38;;;;;;;8.60;4.40;;;;;;;;;;5053238;28;20028;-69
2022/04/12 03:58:06;;;;;;;8.68;3.80;;;;;;;;;;5052564;28;20028;-71
2022/04/12 04:00:32;;;;;;;7.30;3.75;;;;;;;;;;5035058;28;20029;-70
2022/04/12 04:02:58;;;;;;;7.90;3.30;;;;;;;;;;5053206;28;20017;-69
2022/04/12 04:05:25;;;;;;;4.60;3.17;;;;;;;;;;5053149;28;20075;-68
2022/04/12 04:07:51;;;;;;;8.63;3.95;;;;;;;;;;5052231;28;20052;-69
2022/04/12 04:10:17;;;;;;;8.27;4.07;;;;;;;;;;5052941;28;20025;-71
2022/04/12 04:12:43;;;;;;;10.15;4.00;;;;;;;;;;5052839;28;20437;-70
2022/04/12 04:15:12;;;;;;;9.35;4.53;;;;;;;;;;5052815;28;20013;-68
2022/04/12 04:17:47;;;;;;;11.43;4.50;;;;;;;;;;5034099;28;20017;-71
2022/04/12 04:20:17;;;;;;;5.90;3.40;;;;;;;;;;5052657;28;20017;-70
2022/04/12 04:22:43;;;;;;;5.60;3.17;;;;;;;;;;5052741;28;20029;-71
2022/04/12 04:25:09;;;;;;;7.82;3.83;;;;;;;;;;5052856;28;20017;-70
2022/04/12 04:27:35;;;;;;;11.95;4.65;;;;;;;;;;5051931;28;20322;-69
2022/04/12 04:30:03;;;;;;;7.35;3.42;;;;;;;;;;5052736;28;20067;-69
2022/04/12 04:32:29;;;;;;;5.85;3.22;;;;;;;;;;5052381;28;20110;-69
2022/04/12 04:34:55;;;;;;;7.50;3.95;;;;;;;;;;5052686;28;20064;-69
2022/04/12 04:37:21;;;;;;;7.85;3.92;;;;;;;;;;5048541;28;20391;-68
2022/04/12 04:39:47;;;;;;;6.22;4.35;;;;;;;;;;5050455;28;20043;-71
2022/04/12 04:42:14;;;;;;;9.95;4.18;;;;;;;;;;5032284;28;20052;-69
2022/04/12 04:44:39;;;;;;;11.32;4.22;;;;;;;;;;5059497;28;20025;-69
2022/04/12 04:47:06;;;;;;;8.93;4.80;;;;;;;;;;5039503;28;20375;-69
2022/04/12 04:49:32;;;;;;;7.95;4.20;;;;;;;;;;5060108;28;20513;-69
2022/04/12 04:51:58;;;;;;;6.35;4.05;;;;;;;;;;5054681;28;20076;-69
2022/04/12 04:54:23;;;;;;;11.00;3.92;;;;;;;;;;5054764;28;20047;-69
2022/04/12 04:56:51;;;;;;;7.70;3.67;;;;;;;;;;5037709;28;20100;-69
2022/04/12 04:59:16;;;;;;;9.13;3.63;;;;;;;;;;5040023;28;20027;-70
2022/04/12 05:01:42;;;;;;;6.28;3.97;;;;;;;;;;5061514;28;20351;-68
2022/04/12 05:04:08;;;;;;;8.15;3.63;;;;;;;;;;5054381;28;20036;-71
2022/04/12 05:06:34;;;;;;;7.07;4.20;;;;;;;;;;5044435;28;20032;-70
2022/04/12 05:09:00;;;;;;;5.57;3.10;;;;;;;;;;5060361;28;20025;-69
2022/04/12 05:11:26;;;;;;;7.32;3.83;;;;;;;;;;5060515;28;20414;-70
2022/04/12 05:13:52;;;;;;;7.40;3.60;;;;;;;;;;5042064;28;20017;-69
2022/04/12 05:16:18;;;;;;;9.77;3.63;;;;;;;;;;5043080;28;20061;-67
2022/04/12 05:18:47;;;;;;;7.93;3.50;;;;;;;;;;5057668;28;20017;-69
2022/04/12 05:21:13;;;;;;;7.85;3.55;;;;;;;;;;5057309;28;20017;-70
2022/04/12 05:23:39;;;;;;;8.23;3.08;;;;;;;;;;5061232;28;20363;-68
2022/04/12 05:26:05;;;;;;;10.48;3.60;;;;;;;;;;5043302;28;20029;-68
2022/04/12 05:28:31;;;;;;;7.20;3.45;;;;;;;;;;5059410;28;20023;-70
2022/04/12 05:31:00;;;;;;;6.07;3.30;;;;;;;;;;5049483;28;20104;-69
2022/04/12 05:33:26;;;;;;;6.65;3.35;;;;;;;;;;5051167;28;20032;-72
2022/04/12 05:35:52;;;;;;;8.40;3.67;;;;;;;;;;5032360;28;20410;-72
2022/04/12 05:38:18;;;;;;;7.40;3.83;;;;;;;;;;5032651;28;20032;-73
2022/04/12 05:40:45;;;;;;;8.27;3.85;;;;;;;;;;5033060;28;20051;-69
2022/04/12 05:43:11;;;;;;;10.95;4.15;;;;;;;;;;5060362;28;20082;-70
2022/04/12 05:45:37;;;;;;;6.43;3.75;;;;;;;;;;5061202;28;20032;-70
2022/04/12 05:48:03;;;;;;;9.77;3.70;;;;;;;;;;5055924;28;20028;-72
2022/04/12 05:50:29;;;;;;;7.05;3.60;;;;;;;;;;5050701;28;20031;-72
2022/04/12 05:52:55;;;;;;;7.13;3.38;;;;;;;;;;5048754;28;20036;-70
2022/04/12 05:55:24;;;;;;;7.55;3.38;;;;;;;;;;5050594;28;20108;-66
2022/04/12 05:57:59;;;;;;;7.00;3.72;;;;;;;;;;5050017;28;20499;-75
2022/04/12 06:00:26;;;;;;;8.85;4.10;;;;;;;;;;5051024;28;20029;-76
2022/04/12 06:02:52;;;;;;;8.20;3.40;;;;;;;;;;5033137;28;20033;-80
2022/04/12 06:05:19;;;;;;;7.70;3.47;;;;;;;;;;5038765;28;20032;-76
2022/04/12 06:07:45;;;;;;;7.53;3.60;;;;;;;;;;5057150;28;20036;-74
2022/04/12 06:10:12;;;;;;;7.03;4.40;;;;;;;;;;5058119;28;20075;-73
2022/04/12 06:12:38;;;;;;;7.28;4.45;;;;;;;;;;5058066;28;20312;-74
2022/04/12 06:15:05;;;;;;;8.57;4.35;;;;;;;;;;5038229;28;20028;-78
2022/04/12 06:17:31;;;;;;;7.63;4.03;;;;;;;;;;5066636;28;20493;-77
2022/04/12 06:20:02;;;;;;;8.27;4.03;;;;;;;;;;5061797;28;20037;-77
2022/04/12 06:22:28;;;;;;;8.15;4.10;;;;;;;;;;5052259;28;20025;-78
2022/04/12 06:24:54;;;;;;;9.80;4.10;;;;;;;;;;5052778;28;20024;-73
2022/04/12 06:27:28;;;;;;;9.18;3.55;;;;;;;;;;5056031;28;20230;-76
2022/04/12 06:29:54;;;;;;;15.55;6.43;;;;;;;;;;5071362;28;20492;-68
2022/04/12 06:32:20;;;;;;;5.88;3.88;;;;;;;;;;5049380;28;20060;-70
2022/04/12 06:34:46;;;;;;;6.95;3.55;;;;;;;;;;5032147;28;20463;-70
2022/04/12 06:37:12;;;;;;;7.00;4.60;;;;;;;;;;5049272;28;20017;-69
2022/04/12 06:39:38;;;;;;;6.70;3.90;;;;;;;;;;5044218;28;20506;-69
2022/04/12 06:42:05;;;;;;;10.98;3.55;;;;;;;;;;5046108;28;20501;-72
2022/04/12 06:44:32;;;;;;;9.23;3.80;;;;;;;;;;5050696;28;20028;-73
2022/04/12 06:46:59;;;;;;;27.13;16.27;;;;;;;;;;5049977;28;20079;-70
2022/04/12 06:49:25;;;;;;;10.50;5.88;;;;;;;;;;5049775;28;20027;-74
2022/04/12 06:51:51;;;;;;;14.45;7.53;;;;;;;;;;5050871;28;20410;-73
2022/04/12 06:54:17;;;;;;;7.38;4.20;;;;;;;;;;5050463;28;20061;-74
2022/04/12 06:56:43;;;;;;;6.75;4.25;;;;;;;;;;5050027;28;20255;-75
2022/04/12 06:59:09;;;;;;;8.43;4.18;;;;;;;;;;5031779;28;20022;-72
2022/04/12 07:01:35;;;;;;;11.50;5.00;;;;;;;;;;5050290;28;20027;-73
2022/04/12 07:04:01;;;;;;;7.72;4.32;;;;;;;;;;5049749;28;20523;-75
2022/04/12 07:06:27;;;;;;;9.80;4.10;;;;;;;;;;5050103;28;20257;-73
2022/04/12 07:08:53;;;;;;;11.63;6.40;;;;;;;;;;5049264;28;20067;-72
2022/04/12 07:11:20;;;;;;;45.17;22.58;;;;;;;;;;5050443;28;20056;-73
2022/04/12 07:13:46;;;;;;;20.88;9.35;;;;;;;;;;5050282;28;20498;-74
2022/04/12 07:16:12;;;;;;;25.85;10.93;;;;;;;;;;5050102;28;20045;-72
2022/04/12 07:18:38;;;;;;;37.10;19.50;;;;;;;;;;5052825;28;20048;-70
2022/04/12 07:21:04;;;;;;;53.75;28.77;;;;;;;;;;5035992;28;20348;-73
2022/04/12 07:23:30;;;;;;;10.50;4.47;;;;;;;;;;5036013;28;20021;-73
2022/04/12 07:25:56;;;;;;;6.63;3.67;;;;;;;;;;5054190;28;20032;-73
2022/04/12 07:28:22;;;;;;;8.93;3.58;;;;;;;;;;5042655;28;20025;-71
2022/04/12 07:30:48;;;;;;;8.73;3.67;;;;;;;;;;5054106;28;20037;-71
2022/04/12 07:33:13;;;;;;;5.50;3.15;;;;;;;;;;5052666;28;20029;-70
2022/04/12 07:35:39;;;;;;;10.95;5.95;;;;;;;;;;5057374;28;20075;-69
2022/04/12 07:38:05;;;;;;;9.95;4.93;;;;;;;;;;5056255;28;20048;-74
2022/04/12 07:40:31;;;;;;;10.40;5.70;;;;;;;;;;5054009;28;20074;-76
2022/04/12 07:42:57;;;;;;;38.70;20.85;;;;;;;;;;5054100;28;20029;-76
2022/04/12 07:45:23;;;;;;;10.60;4.07;;;;;;;;;;5032110;28;20017;-71
2022/04/12 07:47:49;;;;;;;17.73;9.63;;;;;;;;;;5043086;28;20037;-70
2022/04/12 07:50:15;;;;;;;8.63;4.53;;;;;;;;;;5053150;28;20025;-73
2022/04/12 07:52:41;;;;;;;14.52;8.45;;;;;;;;;;5035285;28;20028;-72
2022/04/12 07:55:08;;;;;;;14.63;8.18;;;;;;;;;;5052985;28;20056;-75
2022/04/12 07:57:34;;;;;;;8.93;3.50;;;;;;;;;;5052890;28;20028;-73
2022/04/12 08:00:00;;;;;;;15.30;6.35;;;;;;;;;;5053237;28;20025;-73
2022/04/12 08:02:26;;;;;;;6.38;3.55;;;;;;;;;;5041737;28;20017;-73
2022/04/12 08:04:54;;;;;;;8.60;4.28;;;;;;;;;;5060034;28;20186;-72
2022/04/12 08:07:20;;;;;;;11.35;6.47;;;;;;;;;;5051725;28;20486;-75
2022/04/12 08:09:46;;;;;;;16.85;9.18;;;;;;;;;;5034762;28;20029;-79
2022/04/12 08:12:12;;;;;;;10.50;4.07;;;;;;;;;;5053435;28;20559;-76
2022/04/12 08:14:38;;;;;;;6.65;4.20;;;;;;;;;;5053130;28;20036;-75
2022/04/12 08:17:04;;;;;;;8.95;4.72;;;;;;;;;;5049308;28;20025;-79
2022/04/12 08:19:30;;;;;;;8.85;4.05;;;;;;;;;;5034095;28;20021;-77
2022/04/12 08:21:56;;;;;;;8.32;3.47;;;;;;;;;;5054426;28;20029;-75
2022/04/12 08:24:22;;;;;;;7.93;4.03;;;;;;;;;;5053058;28;20080;-73
2022/04/12 08:26:48;;;;;;;7.50;3.80;;;;;;;;;;5052658;28;20111;-73
2022/04/12 08:29:14;;;;;;;9.30;3.70;;;;;;;;;;5048876;28;20021;-76
2022/04/12 08:31:41;;;;;;;8.00;4.18;;;;;;;;;;5046889;28;20025;-71
2022/04/12 08:34:07;;;;;;;7.38;4.13;;;;;;;;;;5039863;28;20470;-75
2022/04/12 08:36:33;;;;;;;8.18;3.75;;;;;;;;;;5057027;28;20083;-74
2022/04/12 08:38:59;;;;;;;6.22;3.40;;;;;;;;;;5051566;28;20029;-74
2022/04/12 08:41:26;;;;;;;6.80;3.53;;;;;;;;;;5047725;28;20029;-70
2022/04/12 08:43:55;;;;;;;5.18;3.03;;;;;;;;;;5043882;28;20525;-77
2022/04/12 08:46:22;;;;;;;7.32;3.60;;;;;;;;;;5042329;28;20507;-73
2022/04/12 08:48:48;;;;;;;6.13;3.42;;;;;;;;;;5047739;28;20031;-79
2022/04/12 08:51:14;;;;;;;5.20;3.80;;;;;;;;;;5053110;28;20021;-77
2022/04/12 08:53:40;;;;;;;11.50;3.83;;;;;;;;;;5052603;28;20024;-79
2022/04/12 08:56:07;;;;;;;5.10;3.35;;;;;;;;;;5050123;28;20029;-79
2022/04/12 08:58:33;;;;;;;10.25;3.50;;;;;;;;;;5052095;28;20049;-80
2022/04/12 09:01:01;;;;;;;5.53;3.17;;;;;;;;;;5054679;28;20024;-79
2022/04/12 09:03:27;;;;;;;4.88;2.40;;;;;;;;;;5053938;28;20021;-79
2022/04/12 09:05:54;;;;;;;3.10;2.08;;;;;;;;;;5052743;28;20481;-74
2022/04/12 09:08:26;;;;;;;2.25;1.73;;;;;;;;;;5050739;28;20025;-74
2022/04/12 09:11:06;;;;;;;9.05;5.22;;;;;;;;;;5051436;28;20025;-74
2022/04/12 09:13:32;;;;;;;8.60;4.68;;;;;;;;;;5033812;28;20024;-76
2022/04/12 09:15:58;;;;;;;3.97;2.47;;;;;;;;;;5051887;28;20029;-69
2022/04/12 09:18:31;;;;;;;3.08;2.25;;;;;;;;;;5033026;28;20078;-69
2022/04/12 09:21:09;;;;;;;4.15;2.10;;;;;;;;;;5051708;28;20534;-76
2022/04/12 09:23:35;;;;;;;4.35;2.22;;;;;;;;;;5051603;28;20033;-68
2022/04/12 09:26:01;;;;;;;64.82;35.47;;;;;;;;;;5051140;28;20370;-69
2022/04/12 09:28:39;;;;;;;59.17;31.95;;;;;;;;;;5050790;28;20032;-70
2022/04/12 09:31:12;;;;;;;16.08;7.97;;;;;;;;;;5051394;28;20052;-67
2022/04/12 09:33:39;;;;;;;15.27;7.70;;;;;;;;;;5033384;28;20111;-69
2022/04/12 09:36:05;;;;;;;43.38;18.83;;;;;;;;;;5051231;28;20055;-67
2022/04/12 09:38:35;;;;;;;17.55;9.18;;;;;;;;;;5050559;28;20269;-70
2022/04/12 09:41:11;;;;;;;6.55;3.40;;;;;;;;;;5051080;28;20051;-67
2022/04/12 09:43:40;;;;;;;13.07;5.55;;;;;;;;;;5051016;28;20033;-70
2022/04/12 09:46:07;;;;;;;14.57;7.15;;;;;;;;;;5041980;28;20058;-70
2022/04/12 09:48:34;;;;;;;6.95;4.05;;;;;;;;;;5063755;22;20186;-74
2022/04/12 09:51:00;;;;;;;17.40;8.25;;;;;;;;;;5050356;28;20028;-74
2022/04/12 09:53:37;;;;;;;10.73;5.78;;;;;;;;;;5051364;28;20402;-75
2022/04/12 09:56:14;;;;;;;10.60;5.63;;;;;;;;;;5050566;28;20368;-75
2022/04/12 09:58:41;;;;;;;10.85;6.57;;;;;;;;;;5051099;28;20104;-75
2022/04/12 10:01:09;;;;;;;21.02;11.27;;;;;;;;;;5050775;28;20025;-75
2022/04/12 10:03:37;;;;;;;10.00;4.47;;;;;;;;;;5051856;28;20087;-76
2022/04/12 10:06:04;;;;;;;4.32;2.85;;;;;;;;;;5051973;28;20036;-75
2022/04/12 10:08:32;;;;;;;5.70;2.63;;;;;;;;;;5050623;28;20036;-75
2022/04/12 10:10:58;;;;;;;15.40;7.95;;;;;;;;;;5050238;28;20024;-76
2022/04/12 10:13:25;;;;;;;5.07;3.50;;;;;;;;;;5051179;28;20029;-73
2022/04/12 10:15:52;;;;;;;16.27;9.15;;;;;;;;;;5050798;28;20017;-69
2022/04/12 10:18:20;;;;;;;2.47;2.28;;;;;;;;;;5049998;28;20021;-72
2022/04/12 10:20:46;;;;;;;4.00;2.25;;;;;;;;;;5056548;28;20029;-70
2022/04/12 10:23:13;;;;;;;3.97;2.63;;;;;;;;;;5062068;28;20036;-70
2022/04/12 10:25:40;;;;;;;7.65;2.40;;;;;;;;;;5057350;28;20032;-69
2022/04/12 10:28:06;;;;;;;4.72;2.67;;;;;;;;;;5058694;28;20039;-69
2022/04/12 10:30:33;;;;;;;11.35;6.32;;;;;;;;;;5057466;28;20040;-69
2022/04/12 10:33:27;;;;;;;3.92;2.10;;;;;;;;;;5055549;28;20036;-69
2022/04/12 10:35:56;;;;;;;6.20;3.80;;;;;;;;;;5038189;28;20056;-77
2022/04/12 10:38:23;;;;;;;5.10;2.95;;;;;;;;;;5040590;28;20025;-71
2022/04/12 10:40:51;;;;;;;8.75;3.45;;;;;;;;;;5050344;28;20025;-75
2022/04/12 10:43:29;;;;;;;3.70;2.70;;;;;;;;;;5049928;28;20025;-73
2022/04/12 10:45:56;;;;;;;7.50;3.78;;;;;;;;;;5056643;28;20426;-75
2022/04/12 10:48:27;;;;;;;5.88;2.83;;;;;;;;;;5049496;28;20502;-74
2022/04/12 10:50:55;;;;;;;9.85;4.78;;;;;;;;;;5049216;28;20064;-75
2022/04/12 10:53:37;;;;;;;8.77;4.38;;;;;;;;;;5054145;28;20442;-75
2022/04/12 10:56:10;;;;;;;2.75;1.88;;;;;;;;;;5045792;28;20501;-74
2022/04/12 10:58:37;;;;;;;4.28;2.78;;;;;;;;;;5051601;28;20299;-74
2022/04/12 11:01:04;;;;;;;4.38;2.38;;;;;;;;;;5047034;28;20433;-75
2022/04/12 11:03:43;;;;;;;5.85;2.83;;;;;;;;;;5052924;28;20045;-74
2022/04/12 11:06:12;;;;;;;4.82;2.63;;;;;;;;;;5054405;28;20059;-75
2022/04/12 11:08:38;;;;;;;4.03;2.97;;;;;;;;;;5053465;28;20506;-74
2022/04/12 11:11:04;;;;;;;5.07;2.47;;;;;;;;;;5058815;28;20105;-73
2022/04/12 11:13:31;;;;;;;2.60;2.20;;;;;;;;;;5060436;28;20021;-74
2022/04/12 11:16:00;;;;;;;7.43;2.90;;;;;;;;;;5062872;28;20020;-75
2022/04/12 11:18:46;;;;;;;4.10;2.47;;;;;;;;;;5058545;28;20013;-75
2022/04/12 11:21:12;;;;;;;6.68;3.97;;;;;;;;;;5060675;28;20462;-75
2022/04/12 11:23:45;;;;;;;4.07;2.83;;;;;;;;;;5061403;28;20028;-74
2022/04/12 11:26:29;;;;;;;12.05;6.75;;;;;;;;;;5057520;28;20029;-77
2022/04/12 11:28:58;;;;;;;3.58;2.63;;;;;;;;;;5053477;28;20059;-74
2022/04/12 11:31:24;;;;;;;14.93;8.48;;;;;;;;;;5054099;28;20021;-76
2022/04/12 11:33:50;;;;;;;3.53;2.60;;;;;;;;;;5053796;28;20527;-75
2022/04/12 11:36:18;;;;;;;4.63;2.97;;;;;;;;;;5053729;28;20025;-74
2022/04/12 11:38:44;;;;;;;4.13;2.90;;;;;;;;;;5052654;28;20059;-74
2022/04/12 11:41:09;;;;;;;5.78;2.97;;;;;;;;;;5054040;28;20426;-77
2022/04/12 11:43:35;;;;;;;9.05;3.20;;;;;;;;;;5059021;28;20020;-72
2022/04/12 11:46:02;;;;;;;4.32;2.60;;;;;;;;;;5062047;28;20509;-72
2022/04/12 11:48:28;;;;;;;5.82;3.40;;;;;;;;;;5055194;28;20039;-72
2022/04/12 11:50:55;;;;;;;6.68;3.60;;;;;;;;;;5053447;28;20013;-74
2022/04/12 11:53:21;;;;;;;7.95;3.47;;;;;;;;;;5053298;28;20116;-74
2022/04/12 11:55:48;;;;;;;4.70;2.63;;;;;;;;;;5053182;28;20111;-71
2022/04/12 11:58:14;;;;;;;4.53;2.60;;;;;;;;;;5052161;28;20528;-71
2022/04/12 12:00:40;;;;;;;4.82;3.00;;;;;;;;;;5045536;28;20030;-71
2022/04/12 12:03:13;;;;;;;4.70;2.33;;;;;;;;;;5053012;28;20044;-72
2022/04/12 12:05:39;;;;;;;3.85;2.20;;;;;;;;;;5053235;28;20032;-74
2022/04/12 12:08:05;;;;;;;4.65;2.60;;;;;;;;;;5052133;28;20429;-76
2022/04/12 12:10:31;;;;;;;4.40;2.28;;;;;;;;;;5053443;28;20040;-76
2022/04/12 12:12:57;;;;;;;5.13;2.53;;;;;;;;;;5053056;28;20105;-75
2022/04/12 12:15:25;;;;;;;7.63;3.50;;;;;;;;;;5053247;28;20085;-75
2022/04/12 12:17:52;;;;;;;10.65;3.90;;;;;;;;;;5052409;28;20056;-75
2022/04/12 12:20:19;;;;;;;7.25;3.10;;;;;;;;;;5059642;28;20448;-76
2022/04/12 12:22:46;;;;;;;4.90;3.03;;;;;;;;;;5053480;28;20021;-70
2022/04/12 12:25:18;;;;;;;5.72;2.90;;;;;;;;;;5051558;28;20031;-69
2022/04/12 12:27:49;;;;;;;4.88;3.28;;;;;;;;;;5050512;28;20017;-68
2022/04/12 12:30:17;;;;;;;6.32;3.45;;;;;;;;;;5052499;28;20028;-69
2022/04/12 12:32:44;;;;;;;6.13;3.47;;;;;;;;;;5052417;28;20033;-68
2022/04/12 12:35:11;;;;;;;7.85;4.10;;;;;;;;;;5052258;28;20021;-69
2022/04/12 12:37:37;;;;;;;4.57;2.97;;;;;;;;;;5051929;28;20052;-77
2022/04/12 12:40:04;;;;;;;5.88;2.92;;;;;;;;;;5052498;28;20032;-74
2022/04/12 12:42:37;;;;;;;6.30;3.40;;;;;;;;;;5052873;28;20067;-75
2022/04/12 12:45:13;;;;;;;6.97;3.10;;;;;;;;;;5050343;28;20032;-75
2022/04/12 12:47:44;;;;;;;5.03;3.67;;;;;;;;;;5050790;28;20029;-68
2022/04/12 12:50:14;;;;;;;8.27;3.13;;;;;;;;;;5050619;28;20029;-67
2022/04/12 12:52:40;;;;;;;7.70;3.78;;;;;;;;;;5051624;28;20033;-69
2022/04/12 12:55:13;;;;;;;9.65;5.45;;;;;;;;;;5050989;28;20025;-67
2022/04/12 12:57:40;;;;;;;6.05;3.08;;;;;;;;;;5049738;28;20040;-68
2022/04/12 13:00:07;;;;;;;6.68;4.07;;;;;;;;;;5050389;28;20021;-71
2022/04/12 13:02:36;;;;;;;5.53;3.53;;;;;;;;;;5051347;28;20032;-66
2022/04/12 13:05:06;;;;;;;10.40;3.53;;;;;;;;;;5051217;28;20027;-67
2022/04/12 13:07:34;;;;;;;5.28;3.25;;;;;;;;;;5050168;28;20039;-69
2022/04/12 13:10:09;;;;;;;6.38;3.50;;;;;;;;;;5052149;28;20380;-66
2022/04/12 13:12:35;;;;;;;6.20;4.25;;;;;;;;;;5051736;28;20052;-67
2022/04/12 13:15:01;;;;;;;6.68;3.60;;;;;;;;;;5049918;28;20021;-69
2022/04/12 13:17:27;;;;;;;7.10;4.22;;;;;;;;;;5049277;28;20021;-68
2022/04/12 13:19:54;;;;;;;8.45;4.25;;;;;;;;;;5051827;28;20032;-66
2022/04/12 13:22:20;;;;;;;6.80;4.35;;;;;;;;;;5051320;28;20387;-68
2022/04/12 13:24:46;;;;;;;6.25;4.30;;;;;;;;;;5050363;28;20442;-68
2022/04/12 13:27:12;;;;;;;7.55;5.20;;;;;;;;;;5050493;28;20021;-66
2022/04/12 13:29:38;;;;;;;6.55;4.90;;;;;;;;;;5051755;28;20020;-68
2022/04/12 13:32:04;;;;;;;6.75;4.40;;;;;;;;;;5051450;28;20028;-68
2022/04/12 13:34:31;;;;;;;8.48;5.28;;;;;;;;;;5051655;28;20058;-68
2022/04/12 13:36:57;;;;;;;10.30;4.90;;;;;;;;;;5051272;28;20475;-66
2022/04/12 13:39:23;;;;;;;9.18;5.70;;;;;;;;;;5051326;28;20048;-68
2022/04/12 13:41:49;;;;;;;6.03;4.35;;;;;;;;;;5050960;28;20068;-68
2022/04/12 13:44:15;;;;;;;12.35;6.05;;;;;;;;;;5051512;28;20033;-67
2022/04/12 13:46:41;;;;;;;6.68;4.38;;;;;;;;;;5050982;28;20621;-69
2022/04/12 13:49:07;;;;;;;12.35;7.30;;;;;;;;;;5050445;28;20039;-67
2022/04/12 13:51:33;;;;;;;6.55;4.88;;;;;;;;;;5051357;28;20103;-67
2022/04/12 13:53:59;;;;;;;7.18;5.22;;;;;;;;;;5050961;28;20167;-67
2022/04/12 13:56:25;;;;;;;8.23;5.63;;;;;;;;;;5051007;28;20171;-69
2022/04/12 13:58:51;;;;;;;8.98;5.78;;;;;;;;;;5049116;28;20021;-68
2022/04/12 14:01:17;;;;;;;8.65;5.15;;;;;;;;;;5042506;28;20118;-68
2022/04/12 14:03:43;;;;;;;8.60;5.80;;;;;;;;;;5051141;28;20040;-70
2022/04/12 14:06:10;;;;;;;6.88;5.00;;;;;;;;;;5051168;28;20099;-69
2022/04/12 14:08:38;;;;;;;9.35;5.63;;;;;;;;;;5049897;28;20514;-68
2022/04/12 14:11:06;;;;;;;7.13;5.43;;;;;;;;;;5050782;28;20021;-67
2022/04/12 14:13:33;;;;;;;11.27;6.13;;;;;;;;;;5050837;28;20037;-67
2022/04/12 14:15:59;;;;;;;10.95;5.32;;;;;;;;;;5050495;28;20478;-68
2022/04/12 14:18:25;;;;;;;8.85;5.82;;;;;;;;;;5049706;28;20027;-68
2022/04/12 14:20:51;;;;;;;7.72;5.70;;;;;;;;;;5050736;28;20021;-68
2022/04/12 14:23:17;;;;;;;8.63;5.50;;;;;;;;;;5050510;28;20025;-67
2022/04/12 14:25:43;;;;;;;8.13;5.65;;;;;;;;;;5051282;28;20513;-67
2022/04/12 14:28:10;;;;;;;6.93;5.00;;;;;;;;;;5052512;28;20035;-69
2022/04/12 14:30:37;;;;;;;7.82;5.90;;;;;;;;;;5053642;28;20495;-67
2022/04/12 14:33:03;;;;;;;10.35;5.80;;;;;;;;;;5054764;28;20052;-68
2022/04/12 14:35:30;;;;;;;7.97;5.00;;;;;;;;;;5053396;28;20059;-67
2022/04/12 14:37:56;;;;;;;8.27;5.55;;;;;;;;;;5053677;28;20025;-67
2022/04/12 14:40:22;;;;;;;9.68;5.70;;;;;;;;;;5052844;28;20032;-67
2022/04/12 14:42:48;;;;;;;9.07;5.95;;;;;;;;;;5053090;28;20090;-67
2022/04/12 14:45:14;;;;;;;8.07;5.65;;;;;;;;;;5054430;28;20025;-67